createdAt,value
2022-11-10T00:04:49.480Z,22.9
2022-11-10T00:10:07.719Z,22.9
2022-11-10T00:15:26.191Z,23
2022-11-10T00:20:44.956Z,23
2022-11-10T00:26:03.489Z,23
2022-11-10T00:31:21.963Z,23
2022-11-10T00:36:40.181Z,23
2022-11-10T00:41:58.687Z,22.9
2022-11-10T00:47:17.424Z,22.9
2022-11-10T00:52:35.915Z,22.9
2022-11-10T00:57:54.432Z,22.9
2022-11-10T01:03:13.178Z,22.9
2022-11-10T01:08:31.665Z,22.9
2022-11-10T01:13:50.174Z,22.8
2022-11-10T01:19:08.910Z,22.9
2022-11-10T01:24:27.685Z,22.9
2022-11-10T01:29:45.648Z,22.9
2022-11-10T01:35:04.118Z,22.9
2022-11-10T01:40:22.770Z,22.9
2022-11-10T01:45:40.961Z,22.9
2022-11-10T01:50:59.423Z,22.9
2022-11-10T01:56:17.626Z,22.9
2022-11-10T02:01:36.125Z,22.9
2022-11-10T02:06:54.370Z,22.9
2022-11-10T02:12:12.750Z,22.9
2022-11-10T02:17:31.266Z,22.9
2022-11-10T02:22:49.722Z,22.9
2022-11-10T02:28:08.219Z,22.8
2022-11-10T02:33:26.450Z,22.8
2022-11-10T02:38:44.631Z,22.8
2022-11-10T02:44:02.845Z,22.8
2022-11-10T02:49:21.098Z,22.8
2022-11-10T02:54:39.545Z,22.8
2022-11-10T02:59:57.478Z,22.8
2022-11-10T03:05:16.279Z,22.8
2022-11-10T03:10:34.460Z,22.8
2022-11-10T03:15:52.958Z,22.8
2022-11-10T03:21:11.475Z,22.8
2022-11-10T03:26:30.026Z,22.8
2022-11-10T03:31:48.513Z,22.8
2022-11-10T03:37:06.770Z,22.8
2022-11-10T03:42:24.953Z,22.8
2022-11-10T03:47:43.447Z,22.8
2022-11-10T03:53:02.240Z,22.8
2022-11-10T03:58:20.437Z,22.8
2022-11-10T04:03:38.904Z,22.7
2022-11-10T04:08:57.461Z,22.7
2022-11-10T04:14:15.906Z,22.7
2022-11-10T04:19:34.385Z,22.7
2022-11-10T04:24:52.922Z,22.7
2022-11-10T04:30:11.102Z,22.7
2022-11-10T04:35:29.596Z,22.7
2022-11-10T04:40:47.835Z,22.8
2022-11-10T04:46:06.575Z,22.8
2022-11-10T04:51:24.893Z,22.8
2022-11-10T04:56:42.980Z,22.8
2022-11-10T05:02:01.721Z,22.8
2022-11-10T05:07:20.226Z,22.7
2022-11-10T05:12:39.019Z,22.8
2022-11-10T05:17:57.491Z,22.8
2022-11-10T05:23:16.266Z,22.8
2022-11-10T05:28:35.063Z,22.8
2022-11-10T05:33:53.522Z,22.2
2022-11-10T05:39:12.283Z,21.7
2022-11-10T05:44:30.804Z,21.3
2022-11-10T05:49:49.549Z,21.5
2022-11-10T05:55:08.695Z,21.7
2022-11-10T06:00:27.245Z,21.8
2022-11-10T06:05:45.429Z,21.9
2022-11-10T06:11:03.908Z,22
2022-11-10T06:16:22.716Z,22
2022-11-10T06:21:41.448Z,22
2022-11-10T06:27:00.226Z,22.1
2022-11-10T06:32:18.747Z,22.1
2022-11-10T06:37:37.487Z,22.1
2022-11-10T06:42:55.701Z,22.1
2022-11-10T06:48:14.231Z,22.1
2022-11-10T06:53:33.973Z,22.1
2022-11-10T06:58:52.655Z,22.1
2022-11-10T07:04:20.799Z,22.1
2022-11-10T07:09:39.489Z,22.2
2022-11-10T07:14:57.685Z,22.2
2022-11-10T07:20:16.202Z,22.2
2022-11-10T07:25:34.382Z,22.2
2022-11-10T07:30:52.887Z,22.2
2022-11-10T07:36:11.712Z,22.2
2022-11-10T07:41:30.182Z,22.3
2022-11-10T07:46:48.674Z,22.4
2022-11-10T07:52:07.490Z,22.4
2022-11-10T07:57:26.233Z,22.5
2022-11-10T08:02:44.715Z,22.5
2022-11-10T08:08:02.944Z,22.6
2022-11-10T08:13:22.282Z,22.6
2022-11-10T08:18:41.295Z,22.7
2022-11-10T08:24:00.103Z,22.8
2022-11-10T08:29:17.990Z,22.8
2022-11-10T08:34:36.480Z,22.9
2022-11-10T08:39:54.984Z,22.9
2022-11-10T08:45:13.172Z,23
2022-11-10T08:50:31.708Z,23
2022-11-10T08:55:50.338Z,23.1
2022-11-10T09:01:08.508Z,23.1
2022-11-10T09:06:26.993Z,23.1
2022-11-10T09:11:45.512Z,23.2
2022-11-10T09:17:03.964Z,23.2
2022-11-10T09:22:22.449Z,23.2
2022-11-10T09:27:40.686Z,23.3
2022-11-10T09:32:59.435Z,23.3
2022-11-10T09:38:17.914Z,23.3
2022-11-10T09:43:36.155Z,23.3
2022-11-10T09:48:54.350Z,23.4
2022-11-10T09:54:12.828Z,23.4
2022-11-10T09:59:31.059Z,23.4
2022-11-10T10:04:52.513Z,23.4
2022-11-10T10:10:17.945Z,23.4
2022-11-10T10:15:36.504Z,23.4
2022-11-10T10:20:55.235Z,23.4
2022-11-10T10:26:13.161Z,23.5
2022-11-10T10:31:31.689Z,23.5
2022-11-10T10:36:49.871Z,23.5
2022-11-10T10:42:08.646Z,23.5
2022-11-10T10:47:27.424Z,23.5
2022-11-10T10:52:46.175Z,23.5
2022-11-10T10:58:04.113Z,23.5
2022-11-10T11:03:22.635Z,23.5
2022-11-10T11:08:41.381Z,23.5
2022-11-10T11:14:00.049Z,23.5
2022-11-10T11:19:18.283Z,23.4
2022-11-10T11:24:37.032Z,23.5
2022-11-10T11:29:55.241Z,23.5
2022-11-10T11:35:13.752Z,23.5
2022-11-10T11:40:31.945Z,23.4
2022-11-10T11:45:50.141Z,23.4
2022-11-10T11:51:09.006Z,23.4
2022-11-10T11:56:26.914Z,23.4
2022-11-10T12:01:45.698Z,23.4
2022-11-10T12:07:04.650Z,23.4
2022-11-10T12:12:23.054Z,23.3
2022-11-10T12:17:41.560Z,23.3
2022-11-10T12:23:00.090Z,23.3
2022-11-10T12:28:18.795Z,23.3
2022-11-10T12:33:37.432Z,23.2
2022-11-10T12:39:00.680Z,23.2
2022-11-10T12:44:19.427Z,23.2
2022-11-10T12:49:37.645Z,23.2
2022-11-10T12:54:55.897Z,23.2
2022-11-10T13:00:26.775Z,23.2
2022-11-10T13:05:47.038Z,23.1
2022-11-10T13:11:05.547Z,23.1
2022-11-10T13:16:24.006Z,23.1
2022-11-10T13:21:42.500Z,23.1
2022-11-10T13:27:01.180Z,23.1
2022-11-10T13:32:19.659Z,23.1
2022-11-10T13:37:37.860Z,23.1
2022-11-10T13:42:56.660Z,23.1
2022-11-10T13:48:15.403Z,23.1
2022-11-10T13:53:33.904Z,23.1
2022-11-10T13:58:52.671Z,23.1
2022-11-10T14:04:11.260Z,23.1
2022-11-10T14:09:29.826Z,23.1
2022-11-10T14:14:53.881Z,23.1
2022-11-10T14:19:56.720Z,23.1
2022-11-10T14:25:15.226Z,23.1
2022-11-10T14:30:33.711Z,23.1
2022-11-10T14:35:52.254Z,23.1
2022-11-10T14:41:10.447Z,23.1
2022-11-10T14:46:29.155Z,23.1
2022-11-10T14:51:47.407Z,23
2022-11-10T14:57:05.891Z,23
2022-11-10T15:02:25.101Z,23
2022-11-10T15:07:43.809Z,23
2022-11-10T15:13:02.580Z,23
2022-11-10T15:18:22.371Z,23
2022-11-10T15:23:41.632Z,23
2022-11-10T15:29:00.123Z,23
2022-11-10T15:34:18.809Z,23
2022-11-10T15:39:37.583Z,23
2022-11-10T15:44:56.079Z,23
2022-11-10T15:50:14.537Z,23
2022-11-10T15:55:32.876Z,23
2022-11-10T16:00:51.073Z,23
2022-11-10T16:06:09.770Z,23
2022-11-10T16:11:27.875Z,23
2022-11-10T16:16:46.362Z,23
2022-11-10T16:22:04.516Z,23
2022-11-10T16:27:22.570Z,23
2022-11-10T16:32:40.786Z,23
2022-11-10T16:37:59.517Z,23
2022-11-10T16:43:18.122Z,22.9
2022-11-10T16:48:36.897Z,22.9
2022-11-10T16:53:55.623Z,22.9
2022-11-10T16:59:13.691Z,22.9
2022-11-10T17:04:32.452Z,22.9
2022-11-10T17:09:51.232Z,22.9
2022-11-10T17:15:10.224Z,22.9
2022-11-10T17:20:28.953Z,22.9
2022-11-10T17:25:47.652Z,22.9
2022-11-10T17:31:05.986Z,22.9
2022-11-10T17:36:24.465Z,22.9
2022-11-10T17:41:43.444Z,23
2022-11-10T17:46:46.434Z,23
2022-11-10T17:52:04.925Z,23
2022-11-10T17:57:23.892Z,23
2022-11-10T18:02:42.693Z,22.9
2022-11-10T18:08:01.480Z,22.9
2022-11-10T18:13:20.848Z,22.9
2022-11-10T18:18:39.890Z,23
2022-11-10T18:23:58.658Z,23
2022-11-10T18:29:17.342Z,23
2022-11-10T18:34:36.149Z,22.9
2022-11-10T18:39:54.976Z,23
2022-11-10T18:45:13.963Z,22.9
2022-11-10T18:50:32.812Z,22.9
2022-11-10T18:55:51.601Z,22.9
2022-11-10T19:01:10.787Z,22.9
2022-11-10T19:06:29.843Z,22.9
2022-11-10T19:11:48.758Z,22.9
2022-11-10T19:16:51.890Z,22.9
2022-11-10T19:22:10.223Z,22.9
2022-11-10T19:27:28.994Z,22.9
2022-11-10T19:32:47.468Z,22.9
2022-11-10T19:37:49.938Z,22.9
2022-11-10T19:43:08.420Z,22.9
2022-11-10T19:48:27.516Z,22.9
2022-11-10T19:53:45.588Z,22.9
2022-11-10T19:59:04.349Z,22.9
2022-11-10T20:04:06.927Z,22.9
2022-11-10T20:09:25.417Z,22.9
2022-11-10T20:14:43.802Z,22.9
2022-11-10T20:20:02.475Z,23
2022-11-10T20:25:20.696Z,22.9
2022-11-10T20:30:39.159Z,22.9
2022-11-10T20:35:57.580Z,22.9
2022-11-10T20:41:15.600Z,23
2022-11-10T20:46:55.254Z,23
2022-11-10T20:52:14.054Z,23
2022-11-10T20:57:32.575Z,23
2022-11-10T21:02:51.072Z,23
2022-11-10T21:08:09.948Z,23.1
2022-11-10T21:13:28.886Z,23.1
2022-11-10T21:18:47.365Z,23.1
2022-11-10T21:24:06.321Z,23.1
2022-11-10T21:29:24.706Z,23.1
2022-11-10T21:34:45.953Z,23.1
2022-11-10T21:40:04.648Z,23.1
2022-11-10T21:45:22.973Z,23.1
2022-11-10T21:50:41.722Z,23.1
2022-11-10T21:56:00.713Z,23.1
2022-11-10T22:01:19.743Z,23.1
2022-11-10T22:06:38.107Z,23.1
2022-11-10T22:11:40.697Z,23.1
2022-11-10T22:16:59.036Z,23.1
2022-11-10T22:22:17.502Z,23.1
2022-11-10T22:27:36.481Z,23.1
2022-11-10T22:32:54.733Z,23
2022-11-10T22:38:13.211Z,23.1
2022-11-10T22:43:31.980Z,23
2022-11-10T22:48:50.530Z,23
2022-11-10T22:54:09.310Z,23.1
2022-11-10T22:59:28.295Z,23
2022-11-10T23:04:46.951Z,23.1
2022-11-10T23:10:05.156Z,23
2022-11-10T23:15:23.849Z,23
2022-11-10T23:20:42.660Z,23
2022-11-10T23:26:00.864Z,23
2022-11-10T23:31:19.633Z,23
2022-11-10T23:36:38.249Z,23
2022-11-10T23:41:40.832Z,23
2022-11-10T23:46:59.524Z,23
2022-11-10T23:52:17.901Z,23
2022-11-10T23:57:36.386Z,23
